createdAt,value
2022-11-28T00:00:33.999Z,35.60
2022-11-28T00:05:47.105Z,33.10
2022-11-28T00:08:13.793Z,43.40
2022-11-28T00:10:40.758Z,43.70
2022-11-28T00:13:07.262Z,40.17
2022-11-28T00:15:33.825Z,38.23
2022-11-28T00:18:00.348Z,35.93
2022-11-28T00:20:26.846Z,38.83
2022-11-28T00:22:53.411Z,37.33
2022-11-28T00:25:20.027Z,37.60
2022-11-28T00:27:46.604Z,40.23
2022-11-28T00:30:13.760Z,37.93
2022-11-28T00:32:40.223Z,37.27
2022-11-28T00:35:07.071Z,38.70
2022-11-28T00:37:33.704Z,43.30
2022-11-28T00:40:00.268Z,38.57
2022-11-28T00:42:26.742Z,37.73
2022-11-28T00:44:53.233Z,38.60
2022-11-28T00:47:19.725Z,36.27
2022-11-28T00:49:46.290Z,35.90
2022-11-28T00:52:12.784Z,37.83
2022-11-28T00:54:39.421Z,40.13
2022-11-28T00:57:05.913Z,39.93
2022-11-28T00:59:32.451Z,40.70
2022-11-28T01:01:58.939Z,39.27
2022-11-28T01:04:27.762Z,40.57
2022-11-28T01:06:54.271Z,38.87
2022-11-28T01:09:21.247Z,40.20
2022-11-28T01:11:49.217Z,37.93
2022-11-28T01:14:16.143Z,35.17
2022-11-28T01:16:42.667Z,31.93
2022-11-28T01:19:09.214Z,27.10
2022-11-28T01:21:35.788Z,25.47
2022-11-28T01:24:02.269Z,23.47
2022-11-28T01:26:29.007Z,25.00
2022-11-28T01:28:55.748Z,24.30
2022-11-28T01:31:23.287Z,31.80
2022-11-28T01:33:49.940Z,32.37
2022-11-28T01:36:16.629Z,32.47
2022-11-28T01:38:43.329Z,31.07
2022-11-28T01:41:09.914Z,27.27
2022-11-28T01:46:20.644Z,27.20
2022-11-28T01:48:47.197Z,23.97
2022-11-28T01:51:13.778Z,23.07
2022-11-28T01:53:41.303Z,22.47
2022-11-28T01:56:14.653Z,23.13
2022-11-28T01:58:41.833Z,20.10
2022-11-28T02:01:08.396Z,20.07
2022-11-28T02:03:38.302Z,19.30
2022-11-28T02:06:05.014Z,18.87
2022-11-28T02:08:33.022Z,18.53
2022-11-28T02:13:53.571Z,18.67
2022-11-28T02:19:16.598Z,18.03
2022-11-28T02:24:56.491Z,17.33
2022-11-28T02:27:27.691Z,17.37
2022-11-28T02:30:09.802Z,16.90
2022-11-28T02:35:45.461Z,17.27
2022-11-28T02:41:01.005Z,18.07
2022-11-28T02:46:37.278Z,16.53
2022-11-28T02:49:04.799Z,15.80
2022-11-28T02:51:50.219Z,15.53
2022-11-28T02:54:17.206Z,14.83
2022-11-28T02:56:47.486Z,16.47
2022-11-28T03:02:18.823Z,16.67
2022-11-28T03:07:35.771Z,16.60
2022-11-28T03:10:09.380Z,18.17
2022-11-28T03:12:45.031Z,15.97
2022-11-28T03:18:04.724Z,15.43
2022-11-28T03:20:35.286Z,17.27
2022-11-28T03:23:04.823Z,15.57
2022-11-28T03:25:31.288Z,16.23
2022-11-28T03:30:55.402Z,22.30
2022-11-28T03:36:18.126Z,16.47
2022-11-28T03:41:39.796Z,16.50
2022-11-28T03:44:11.613Z,16.87
2022-11-28T03:46:41.056Z,19.00
2022-11-28T03:49:09.439Z,16.70
2022-11-28T03:51:43.469Z,19.13
2022-11-28T03:54:17.056Z,19.40
2022-11-28T03:59:49.236Z,12.93
2022-11-28T04:05:18.236Z,16.77
2022-11-28T04:07:46.017Z,18.00
2022-11-28T04:10:21.263Z,15.30
2022-11-28T04:12:59.134Z,19.00
2022-11-28T04:15:25.749Z,15.50
2022-11-28T04:17:57.860Z,13.37
2022-11-28T04:20:33.057Z,14.43
2022-11-28T04:23:01.621Z,14.50
2022-11-28T04:25:28.234Z,14.40
2022-11-28T04:27:56.724Z,14.63
2022-11-28T04:30:23.261Z,14.90
2022-11-28T04:32:50.604Z,14.70
2022-11-28T04:35:20.760Z,15.00
2022-11-28T04:37:48.811Z,12.93
2022-11-28T04:40:15.476Z,11.23
2022-11-28T04:42:52.646Z,12.77
2022-11-28T04:45:33.357Z,14.53
2022-11-28T04:47:59.956Z,15.00
2022-11-28T04:50:28.753Z,14.90
2022-11-28T04:52:55.346Z,15.93
2022-11-28T04:55:41.191Z,13.00
2022-11-28T04:58:09.621Z,14.33
2022-11-28T05:00:36.217Z,13.73
2022-11-28T05:05:47.612Z,12.77
2022-11-28T05:10:58.286Z,14.10
2022-11-28T05:16:09.695Z,15.40
2022-11-28T05:18:36.241Z,14.00
2022-11-28T05:21:02.932Z,13.90
2022-11-28T05:23:29.391Z,13.40
2022-11-28T05:25:55.960Z,14.57
2022-11-28T05:28:22.416Z,14.47
2022-11-28T05:30:58.302Z,14.10
2022-11-28T05:33:24.814Z,14.20
2022-11-28T05:35:51.369Z,14.43
2022-11-28T05:41:02.415Z,14.77
2022-11-28T05:43:29.079Z,16.27
2022-11-28T05:45:55.736Z,15.47
2022-11-28T05:48:22.521Z,16.47
2022-11-28T05:50:50.981Z,16.90
2022-11-28T05:53:17.880Z,16.47
2022-11-28T05:55:45.690Z,16.53
2022-11-28T05:58:12.396Z,16.33
2022-11-28T06:00:39.488Z,18.13
2022-11-28T06:03:06.143Z,17.00
2022-11-28T06:05:42.704Z,14.53
2022-11-28T06:08:11.040Z,15.37
2022-11-28T06:10:37.586Z,16.23
2022-11-28T06:13:04.333Z,16.43
2022-11-28T06:15:34.880Z,17.50
2022-11-28T06:18:04.158Z,17.70
2022-11-28T06:20:30.859Z,16.60
2022-11-28T06:22:57.441Z,17.60
2022-11-28T06:25:23.959Z,19.17
2022-11-28T06:27:50.715Z,19.60
2022-11-28T06:30:17.972Z,18.77
2022-11-28T06:35:28.540Z,16.00
2022-11-28T06:37:55.084Z,17.67
2022-11-28T06:40:21.669Z,15.27
2022-11-28T06:42:50.452Z,15.60
2022-11-28T06:45:17.040Z,16.00
2022-11-28T06:47:43.639Z,15.00
2022-11-28T06:50:11.052Z,15.73
2022-11-28T06:52:37.584Z,15.87
2022-11-28T06:55:04.192Z,16.13
2022-11-28T06:57:32.692Z,15.27
2022-11-28T07:02:43.434Z,14.90
2022-11-28T07:05:10.055Z,14.43
2022-11-28T07:07:52.743Z,14.67
2022-11-28T07:10:20.950Z,14.83
2022-11-28T07:12:47.496Z,13.53
2022-11-28T07:15:14.040Z,14.33
2022-11-28T07:17:40.564Z,13.57
2022-11-28T07:20:10.593Z,13.83
2022-11-28T07:22:37.175Z,14.03
2022-11-28T07:25:03.889Z,13.87
2022-11-28T07:27:30.411Z,13.43
2022-11-28T07:29:56.947Z,12.30
2022-11-28T07:32:23.556Z,13.90
2022-11-28T07:34:50.351Z,13.80
2022-11-28T07:37:16.958Z,14.63
2022-11-28T07:39:44.802Z,15.10
2022-11-28T07:42:12.015Z,14.27
2022-11-28T07:44:38.511Z,15.30
2022-11-28T07:47:05.147Z,14.43
2022-11-28T07:49:32.389Z,14.10
2022-11-28T07:51:58.893Z,14.27
2022-11-28T07:54:25.391Z,15.13
2022-11-28T07:59:38.552Z,11.73
2022-11-28T08:02:05.428Z,17.30
2022-11-28T08:04:32.116Z,17.10
2022-11-28T08:06:58.701Z,17.07
2022-11-28T08:09:25.507Z,18.90
2022-11-28T08:11:52.653Z,16.47
2022-11-28T08:14:20.251Z,14.87
2022-11-28T08:16:46.869Z,15.23
2022-11-28T08:19:13.674Z,15.90
2022-11-28T08:21:40.262Z,17.47
2022-11-28T08:24:08.156Z,16.57
2022-11-28T08:26:34.988Z,15.57
2022-11-28T08:31:45.746Z,13.80
2022-11-28T08:36:57.011Z,14.80
2022-11-28T08:39:24.933Z,12.80
2022-11-28T08:41:52.107Z,15.67
2022-11-28T08:44:18.648Z,14.43
2022-11-28T08:46:45.157Z,17.80
2022-11-28T08:49:11.781Z,15.63
2022-11-28T08:51:38.349Z,16.40
2022-11-28T08:54:05.022Z,14.93
2022-11-28T08:56:31.539Z,16.53
2022-11-28T08:58:58.067Z,13.80
2022-11-28T09:01:25.601Z,13.97
2022-11-28T09:03:52.420Z,13.37
2022-11-28T09:06:19.138Z,14.10
2022-11-28T09:11:31.529Z,14.03
2022-11-28T09:16:42.493Z,11.53
2022-11-28T09:19:10.771Z,12.97
2022-11-28T09:21:37.624Z,15.53
2022-11-28T09:24:04.269Z,14.00
2022-11-28T09:26:30.810Z,14.30
2022-11-28T09:28:57.464Z,12.47
2022-11-28T09:31:24.206Z,13.23
2022-11-28T09:33:50.824Z,12.07
2022-11-28T09:36:21.259Z,12.87
2022-11-28T09:38:47.837Z,13.33
2022-11-28T09:44:20.335Z,12.67
2022-11-28T09:46:47.042Z,11.80
2022-11-28T09:49:22.306Z,11.50
2022-11-28T09:51:58.058Z,11.40
2022-11-28T09:54:29.830Z,11.07
2022-11-28T09:56:56.324Z,11.70
2022-11-28T09:59:22.822Z,11.90
2022-11-28T10:01:56.877Z,11.03
2022-11-28T10:04:33.515Z,10.37
2022-11-28T10:07:09.364Z,10.53
2022-11-28T10:09:43.317Z,11.60
2022-11-28T10:12:16.212Z,10.87
2022-11-28T10:15:09.210Z,10.30
2022-11-28T10:17:38.841Z,9.67
2022-11-28T10:20:07.027Z,10.97
2022-11-28T10:22:42.778Z,10.53
2022-11-28T10:25:19.511Z,10.90
2022-11-28T10:27:46.143Z,11.40
2022-11-28T10:30:16.716Z,11.40
2022-11-28T10:32:44.089Z,11.40
2022-11-28T10:35:26.852Z,12.50
2022-11-28T10:37:55.180Z,11.10
2022-11-28T10:40:26.395Z,10.87
2022-11-28T10:42:53.056Z,11.87
2022-11-28T10:45:38.440Z,12.20
2022-11-28T10:48:38.943Z,10.67
2022-11-28T10:51:18.038Z,12.10
2022-11-28T10:53:51.467Z,11.17
2022-11-28T10:59:30.679Z,12.07
2022-11-28T11:01:57.777Z,13.97
2022-11-28T11:04:26.707Z,12.33
2022-11-28T11:07:08.198Z,12.67
2022-11-28T11:09:36.687Z,12.27
2022-11-28T11:12:03.250Z,11.83
2022-11-28T11:14:33.796Z,11.83
2022-11-28T11:17:00.379Z,13.17
2022-11-28T11:19:30.114Z,11.90
2022-11-28T11:21:59.692Z,12.70
2022-11-28T11:24:26.268Z,12.73
2022-11-28T11:26:52.815Z,12.30
2022-11-28T11:29:23.291Z,13.77
2022-11-28T11:34:38.652Z,13.50
2022-11-28T11:37:40.794Z,13.33
2022-11-28T11:40:26.625Z,11.80
2022-11-28T11:42:57.012Z,12.37
2022-11-28T11:45:27.717Z,14.83
2022-11-28T11:47:54.364Z,13.57
2022-11-28T11:50:22.059Z,15.60
2022-11-28T11:53:13.901Z,13.63
2022-11-28T11:55:48.863Z,14.07
2022-11-28T11:58:16.633Z,14.00
2022-11-28T12:00:43.216Z,13.77
2022-11-28T12:03:13.163Z,14.63
2022-11-28T12:06:06.510Z,13.93
2022-11-28T12:08:43.989Z,14.23
2022-11-28T12:11:13.551Z,14.10
2022-11-28T12:13:40.122Z,13.87
2022-11-28T12:16:09.832Z,12.23
2022-11-28T12:18:52.970Z,14.23
2022-11-28T12:21:22.411Z,13.97
2022-11-28T12:23:49.107Z,15.47
2022-11-28T12:26:35.975Z,13.30
2022-11-28T12:29:06.445Z,14.00
2022-11-28T12:31:39.469Z,14.27
2022-11-28T12:34:09.177Z,14.20
2022-11-28T12:36:41.532Z,14.10
2022-11-28T12:39:18.640Z,13.53
2022-11-28T12:41:45.206Z,13.73
2022-11-28T12:44:15.725Z,13.30
2022-11-28T12:46:42.359Z,12.30
2022-11-28T12:49:08.922Z,13.67
2022-11-28T12:51:41.680Z,13.40
2022-11-28T12:54:14.087Z,13.77
2022-11-28T12:56:43.563Z,13.00
2022-11-28T12:59:26.022Z,14.50
2022-11-28T13:01:52.698Z,14.70
2022-11-28T13:04:41.609Z,15.57
2022-11-28T13:07:21.379Z,14.70
2022-11-28T13:12:50.870Z,13.70
2022-11-28T13:15:24.557Z,14.40
2022-11-28T13:17:55.466Z,13.87
2022-11-28T13:20:28.235Z,14.30
2022-11-28T13:23:16.807Z,13.93
2022-11-28T13:25:43.467Z,12.47
2022-11-28T13:28:13.337Z,13.93
2022-11-28T13:33:30.936Z,13.23
2022-11-28T13:35:57.933Z,13.70
2022-11-28T13:38:57.431Z,14.10
2022-11-28T13:44:24.429Z,13.83
2022-11-28T13:46:56.826Z,13.40
2022-11-28T13:49:27.032Z,14.00
2022-11-28T13:55:35.781Z,12.93
2022-11-28T13:58:16.467Z,11.30
2022-11-28T14:00:43.525Z,11.90
2022-11-28T14:03:19.582Z,13.00
2022-11-28T14:05:46.521Z,11.70
2022-11-28T14:08:25.777Z,12.63
2022-11-28T14:10:58.504Z,14.33
2022-11-28T14:16:30.934Z,12.33
2022-11-28T14:19:09.434Z,13.53
2022-11-28T14:21:35.939Z,16.30
2022-11-28T14:24:02.434Z,17.03
2022-11-28T14:26:34.574Z,15.40
2022-11-28T14:29:01.648Z,15.73
2022-11-28T14:31:32.670Z,14.00
2022-11-28T14:34:01.531Z,15.73
2022-11-28T14:36:34.677Z,13.77
2022-11-28T14:39:01.572Z,13.93
2022-11-28T14:41:29.173Z,12.63
2022-11-28T14:43:55.733Z,15.57
2022-11-28T14:46:30.527Z,15.33
2022-11-28T14:48:58.591Z,14.30
2022-11-28T14:51:44.034Z,15.17
2022-11-28T14:54:26.526Z,15.10
2022-11-28T14:59:37.787Z,15.63
2022-11-28T15:02:10.589Z,15.33
2022-11-28T15:04:49.106Z,15.20
2022-11-28T15:07:19.578Z,15.40
2022-11-28T15:09:51.906Z,18.30
2022-11-28T15:12:40.862Z,20.37
2022-11-28T15:15:10.639Z,19.57
2022-11-28T15:17:38.809Z,17.97
2022-11-28T15:20:09.739Z,18.03
2022-11-28T15:22:40.007Z,20.43
2022-11-28T15:25:27.687Z,17.97
2022-11-28T15:27:57.525Z,21.03
2022-11-28T15:30:26.791Z,22.67
2022-11-28T15:32:58.217Z,20.80
2022-11-28T15:35:24.890Z,19.93
2022-11-28T15:37:53.147Z,18.33
2022-11-28T15:40:28.312Z,20.60
2022-11-28T15:42:56.110Z,19.17
2022-11-28T15:45:29.416Z,19.97
2022-11-28T15:47:56.378Z,19.33
2022-11-28T15:50:25.215Z,19.97
2022-11-28T15:53:02.425Z,19.50
2022-11-28T15:55:30.859Z,18.30
2022-11-28T15:58:10.881Z,19.90
2022-11-28T16:00:39.581Z,18.87
2022-11-28T16:03:06.248Z,19.07
2022-11-28T16:05:33.047Z,18.67
2022-11-28T16:07:59.719Z,18.33
2022-11-28T16:10:28.835Z,19.97
2022-11-28T16:13:00.803Z,18.80
2022-11-28T16:15:27.839Z,19.50
2022-11-28T16:17:57.270Z,18.77
2022-11-28T16:20:26.045Z,20.27
2022-11-28T16:23:06.299Z,20.23
2022-11-28T16:25:33.100Z,22.43
2022-11-28T16:27:59.967Z,24.37
2022-11-28T16:30:37.151Z,23.63
2022-11-28T16:33:23.936Z,23.27
2022-11-28T16:35:50.652Z,22.83
2022-11-28T16:38:24.191Z,23.63
2022-11-28T16:40:51.794Z,24.70
2022-11-28T16:43:24.316Z,21.70
2022-11-28T16:46:00.581Z,21.07
2022-11-28T16:48:28.791Z,22.07
2022-11-28T16:51:11.894Z,21.43
2022-11-28T16:53:39.010Z,22.03
2022-11-28T16:56:06.420Z,23.97
2022-11-28T16:58:33.459Z,21.90
2022-11-28T17:01:00.901Z,23.13
2022-11-28T17:03:44.519Z,22.67
2022-11-28T17:06:14.067Z,24.43
2022-11-28T17:08:40.839Z,24.53
2022-11-28T17:11:08.168Z,23.27
2022-11-28T17:13:34.808Z,23.50
2022-11-28T17:16:01.663Z,23.73
2022-11-28T17:18:28.556Z,22.90
2022-11-28T17:20:55.259Z,23.67
2022-11-28T17:23:25.448Z,24.00
2022-11-28T17:25:52.269Z,24.93
2022-11-28T17:28:22.328Z,24.43
2022-11-28T17:30:51.039Z,26.23
2022-11-28T17:33:17.553Z,27.53
2022-11-28T17:35:46.941Z,25.47
2022-11-28T17:38:13.535Z,25.53
2022-11-28T17:40:42.323Z,23.30
2022-11-28T17:43:18.502Z,22.90
2022-11-28T17:45:45.252Z,23.60
2022-11-28T17:48:16.148Z,23.37
2022-11-28T17:50:45.087Z,25.73
2022-11-28T17:53:13.015Z,25.67
2022-11-28T17:55:40.819Z,24.63
2022-11-28T18:00:59.965Z,25.37
2022-11-28T18:03:27.618Z,23.67
2022-11-28T18:05:55.809Z,24.47
2022-11-28T18:08:22.645Z,24.20
2022-11-28T18:10:49.479Z,24.70
2022-11-28T18:13:17.741Z,24.23
2022-11-28T18:15:45.566Z,24.73
2022-11-28T18:18:13.104Z,24.43
2022-11-28T18:20:39.928Z,24.83
2022-11-28T18:23:11.899Z,24.53
2022-11-28T18:28:27.413Z,24.13
2022-11-28T18:30:54.049Z,25.17
2022-11-28T18:33:20.614Z,26.97
2022-11-28T18:35:47.205Z,25.33
2022-11-28T18:38:15.241Z,24.30
2022-11-28T18:40:41.858Z,23.77
2022-11-28T18:43:08.570Z,24.23
2022-11-28T18:45:35.403Z,24.73
2022-11-28T18:48:02.758Z,25.90
2022-11-28T18:50:30.040Z,26.27
2022-11-28T18:52:57.022Z,25.23
2022-11-28T18:55:24.206Z,25.70
2022-11-28T18:57:50.941Z,26.00
2022-11-28T19:03:02.376Z,24.27
2022-11-28T19:05:31.136Z,24.57
2022-11-28T19:08:00.824Z,25.77
2022-11-28T19:10:27.601Z,25.43
2022-11-28T19:12:54.850Z,24.33
2022-11-28T19:15:23.195Z,23.00
2022-11-28T19:17:49.997Z,23.33
2022-11-28T19:20:17.785Z,24.43
2022-11-28T19:22:44.836Z,25.17
2022-11-28T19:25:12.530Z,24.60
2022-11-28T19:27:40.112Z,25.70
2022-11-28T19:30:07.321Z,27.67
2022-11-28T19:32:34.186Z,26.47
2022-11-28T19:35:01.998Z,25.13
2022-11-28T19:37:29.778Z,24.53
2022-11-28T19:40:01.057Z,24.57
2022-11-28T19:45:14.677Z,23.17
2022-11-28T19:50:28.353Z,24.07
2022-11-28T19:55:39.130Z,23.23
2022-11-28T19:58:05.955Z,23.00
2022-11-28T20:00:33.271Z,21.70
2022-11-28T20:03:00.597Z,22.03
2022-11-28T20:05:29.879Z,21.40
2022-11-28T20:07:58.768Z,20.90
2022-11-28T20:10:25.941Z,21.53
2022-11-28T20:15:38.391Z,21.20
2022-11-28T20:18:05.617Z,22.23
2022-11-28T20:20:33.809Z,21.47
2022-11-28T20:23:00.956Z,21.93
2022-11-28T20:25:27.742Z,21.40
2022-11-28T20:27:56.576Z,22.07
2022-11-28T20:30:23.366Z,20.70
2022-11-28T20:32:50.250Z,22.43
2022-11-28T20:35:19.473Z,21.20
2022-11-28T20:37:46.116Z,25.47
2022-11-28T20:40:13.258Z,24.93
2022-11-28T20:42:40.322Z,22.43
2022-11-28T20:45:07.358Z,22.67
2022-11-28T20:50:21.485Z,23.27
2022-11-28T20:52:49.723Z,23.33
2022-11-28T20:55:16.902Z,22.53
2022-11-28T20:57:45.043Z,24.13
2022-11-28T21:00:15.850Z,22.93
2022-11-28T21:02:44.787Z,24.10
2022-11-28T21:05:14.862Z,23.13
2022-11-28T21:10:28.896Z,22.10
2022-11-28T21:12:59.179Z,24.07
2022-11-28T21:15:27.653Z,22.90
2022-11-28T21:17:55.206Z,23.13
2022-11-28T21:20:26.561Z,23.30
2022-11-28T21:22:54.064Z,23.70
2022-11-28T21:25:25.551Z,24.43
2022-11-28T21:30:40.002Z,25.10
2022-11-28T21:33:06.643Z,24.27
2022-11-28T21:35:36.088Z,25.53
2022-11-28T21:38:02.728Z,23.17
2022-11-28T21:40:29.468Z,24.90
2022-11-28T21:42:56.701Z,23.97
2022-11-28T21:45:24.171Z,24.33
2022-11-28T21:47:51.992Z,23.97
2022-11-28T21:50:18.662Z,24.07
2022-11-28T21:52:47.778Z,23.23
2022-11-28T21:57:59.946Z,25.07
2022-11-28T22:00:52.050Z,25.03
2022-11-28T22:03:14.583Z,24.13
2022-11-28T22:05:42.373Z,23.57
2022-11-28T22:08:10.767Z,23.40
2022-11-28T22:10:37.588Z,23.37
2022-11-28T22:13:04.376Z,24.20
2022-11-28T22:15:32.094Z,22.47
2022-11-28T22:17:58.787Z,23.57
2022-11-28T22:23:09.840Z,22.70
2022-11-28T22:25:36.658Z,22.77
2022-11-28T22:28:03.227Z,22.67
2022-11-28T22:30:30.194Z,24.47
2022-11-28T22:35:41.414Z,23.50
2022-11-28T22:38:08.153Z,23.47
2022-11-28T22:40:34.905Z,23.97
2022-11-28T22:43:01.743Z,23.47
2022-11-28T22:45:28.399Z,24.10
2022-11-28T22:47:55.299Z,23.03
2022-11-28T22:50:21.956Z,25.60
2022-11-28T22:52:48.480Z,24.33
2022-11-28T22:55:16.305Z,23.20
2022-11-28T22:57:42.805Z,23.87
2022-11-28T23:00:10.075Z,23.37
2022-11-28T23:02:37.269Z,24.40
2022-11-28T23:05:04.885Z,24.33
2022-11-28T23:07:31.758Z,24.57
2022-11-28T23:09:58.477Z,23.33
2022-11-28T23:12:25.146Z,25.17
2022-11-28T23:17:35.888Z,23.30
2022-11-28T23:20:03.241Z,24.20
2022-11-28T23:22:29.968Z,23.90
2022-11-28T23:24:57.448Z,24.73
2022-11-28T23:30:08.473Z,23.07
2022-11-28T23:32:34.980Z,23.30
2022-11-28T23:35:04.271Z,25.67
2022-11-28T23:37:30.877Z,23.73
2022-11-28T23:42:41.853Z,23.57
2022-11-28T23:47:52.924Z,23.33
2022-11-28T23:50:19.589Z,23.67
2022-11-28T23:52:46.249Z,23.43
2022-11-28T23:55:12.823Z,23.03
2022-11-28T23:57:39.369Z,23.80
